Rocky Comfort, Missouri
Current Conditions -  °F | °C
As of 5:35 PM on Friday 19 Dec 2014 (Local Time) from KHFJ Reporting Station
Drizzle Drizzle  
Wind Chill:   Ceiling: 400
Heat Index:   Visibility: 3mi
Dew Point:   Wind: 5mph
Humidity: 100%   Direction: 120°ESE
Pressure: 30.17"   Gusts: NA
Location:  36.75°N, 94.09°W
Report Text: KHFJ 192335Z AUTO 12004KT 3SM DZ OVC004 03/03 A3017 RMK AO2
Loading
Personal Weather Stations






























Interactive Weather Map New forecast layout! Learn more

10-Day Weather Forecast

Advertisements
Track Severe Weather on mobile